Time;durP1;ratioP1;P1;durP2;ratioP2;P2;SDS_P1;SDS_P2;PMS_P1;PMS_P2;Temp;Humidity;BMP_temperature;BMP_pressure;BME280_temperature;BME280_humidity;BME280_pressure;Samples;Min_cycle;Max_cycle;Signal;HPM_P1;HPM_P2
2023/09/23 00:00:18;;;;;;;0.90;0.90;;;;;;;;;;5071324;28;20233;-87
2023/09/23 00:02:45;;;;;;;1.20;1.20;;;;;;;;;;5072482;28;20668;-87
2023/09/23 00:05:16;;;;;;;1.40;1.10;;;;;;;;;;5071364;28;20646;-87
2023/09/23 00:07:43;;;;;;;1.43;1.33;;;;;;;;;;5071444;28;20375;-86
2023/09/23 00:10:11;;;;;;;1.07;1.07;;;;;;;;;;5072703;28;20233;-86
2023/09/23 00:12:41;;;;;;;1.23;1.10;;;;;;;;;;5074991;28;20232;-87
2023/09/23 00:15:10;;;;;;;1.10;1.00;;;;;;;;;;5074296;28;20291;-86
2023/09/23 00:17:37;;;;;;;0.90;0.90;;;;;;;;;;5076064;28;20213;-87
2023/09/23 00:20:05;;;;;;;1.00;1.00;;;;;;;;;;5074546;28;20256;-87
2023/09/23 00:22:34;;;;;;;1.10;1.10;;;;;;;;;;5074839;28;20206;-87
2023/09/23 00:25:01;;;;;;;1.00;1.00;;;;;;;;;;5074197;28;20306;-86
2023/09/23 00:27:30;;;;;;;1.60;1.00;;;;;;;;;;5075118;28;20271;-86
2023/09/23 00:29:58;;;;;;;1.10;1.10;;;;;;;;;;5074000;28;20320;-86
2023/09/23 00:32:25;;;;;;;1.07;1.03;;;;;;;;;;5074737;28;20202;-88
2023/09/23 00:34:52;;;;;;;1.20;1.00;;;;;;;;;;5074300;28;20237;-86
2023/09/23 00:37:20;;;;;;;2.17;1.23;;;;;;;;;;5074653;28;20231;-87
2023/09/23 00:39:48;;;;;;;1.17;1.07;;;;;;;;;;5074471;28;20324;-87
2023/09/23 00:42:19;;;;;;;0.97;0.97;;;;;;;;;;5075133;28;20596;-88
2023/09/23 00:44:46;;;;;;;1.83;1.07;;;;;;;;;;5074645;28;20241;-87
2023/09/23 00:47:16;;;;;;;0.77;0.77;;;;;;;;;;5074899;28;20193;-88
2023/09/23 00:49:44;;;;;;;0.97;0.93;;;;;;;;;;5074177;28;20287;-88
2023/09/23 00:52:13;;;;;;;1.57;1.40;;;;;;;;;;5074506;28;20664;-87
2023/09/23 00:54:46;;;;;;;0.90;0.90;;;;;;;;;;5074217;28;20316;-87
2023/09/23 00:57:14;;;;;;;1.07;0.80;;;;;;;;;;5074614;28;20282;-87
2023/09/23 00:59:43;;;;;;;2.90;1.20;;;;;;;;;;5073300;28;20233;-88
2023/09/23 01:02:12;;;;;;;1.37;1.00;;;;;;;;;;5074970;28;20213;-87
2023/09/23 01:04:41;;;;;;;0.90;0.90;;;;;;;;;;5074200;28;20291;-87
2023/09/23 01:07:09;;;;;;;1.03;1.03;;;;;;;;;;5073057;28;20202;-87
2023/09/23 01:09:36;;;;;;;1.00;1.00;;;;;;;;;;5073893;28;20241;-86
2023/09/23 01:12:03;;;;;;;1.03;1.03;;;;;;;;;;5074449;28;20209;-87
2023/09/23 01:14:31;;;;;;;0.93;0.90;;;;;;;;;;5073915;28;20237;-87
2023/09/23 01:16:58;;;;;;;1.00;1.00;;;;;;;;;;5074038;28;20675;-87
2023/09/23 01:19:26;;;;;;;0.90;0.90;;;;;;;;;;5073711;28;20237;-87
2023/09/23 01:21:56;;;;;;;0.90;0.90;;;;;;;;;;5073321;28;20205;-86
2023/09/23 01:24:25;;;;;;;1.20;1.10;;;;;;;;;;5073596;28;20657;-88
2023/09/23 01:26:52;;;;;;;2.07;1.13;;;;;;;;;;5074396;28;20217;-87
2023/09/23 01:29:22;;;;;;;1.13;1.13;;;;;;;;;;5073713;28;20667;-86
2023/09/23 01:31:56;;;;;;;1.00;1.00;;;;;;;;;;5073577;28;20640;-86
2023/09/23 01:34:23;;;;;;;0.90;0.90;;;;;;;;;;5073164;28;20233;-86
2023/09/23 01:36:53;;;;;;;1.40;1.30;;;;;;;;;;5073586;28;20205;-86
2023/09/23 01:39:22;;;;;;;1.10;1.10;;;;;;;;;;5072826;28;20768;-86
2023/09/23 01:41:54;;;;;;;1.10;1.10;;;;;;;;;;5074215;28;20209;-87
2023/09/23 01:44:21;;;;;;;1.03;1.03;;;;;;;;;;5073294;28;20237;-86
2023/09/23 01:46:48;;;;;;;1.40;1.40;;;;;;;;;;5107139;22;20225;-89
2023/09/23 01:49:16;;;;;;;0.97;0.97;;;;;;;;;;5094574;28;20251;-89
2023/09/23 01:51:44;;;;;;;1.57;1.37;;;;;;;;;;5095431;28;20197;-88
2023/09/23 01:54:16;;;;;;;1.37;1.27;;;;;;;;;;5096797;28;20231;-89
2023/09/23 01:56:43;;;;;;;1.70;1.13;;;;;;;;;;5087567;28;20310;-90
2023/09/23 01:59:12;;;;;;;0.90;0.90;;;;;;;;;;5094277;28;20670;-91
2023/09/23 02:01:40;;;;;;;1.30;1.20;;;;;;;;;;5089253;28;20264;-91
2023/09/23 02:04:08;;;;;;;1.17;1.17;;;;;;;;;;5087442;28;20205;-90
2023/09/23 02:06:41;;;;;;;1.13;1.07;;;;;;;;;;5086933;28;20220;-91
2023/09/23 02:09:09;;;;;;;0.90;0.90;;;;;;;;;;5085158;28;20297;-92
2023/09/23 02:11:37;;;;;;;1.40;1.30;;;;;;;;;;5082598;28;20259;-91
2023/09/23 02:14:04;;;;;;;2.20;1.30;;;;;;;;;;5082011;28;20252;-91
2023/09/23 02:16:32;;;;;;;1.07;0.97;;;;;;;;;;5082612;28;20225;-91
2023/09/23 02:18:59;;;;;;;1.00;1.00;;;;;;;;;;5082033;28;20270;-91
2023/09/23 02:21:27;;;;;;;1.00;1.00;;;;;;;;;;5084715;28;20667;-91
2023/09/23 02:23:55;;;;;;;1.40;1.30;;;;;;;;;;5085585;28;20682;-90
2023/09/23 02:26:24;;;;;;;1.20;1.20;;;;;;;;;;5083952;28;20229;-91
2023/09/23 02:28:51;;;;;;;1.70;1.13;;;;;;;;;;5081816;28;20232;-90
2023/09/23 02:31:19;;;;;;;1.10;1.10;;;;;;;;;;5082321;28;20209;-90
2023/09/23 02:33:47;;;;;;;1.40;1.30;;;;;;;;;;5082393;28;20240;-89
2023/09/23 02:36:14;;;;;;;1.17;1.03;;;;;;;;;;5082317;28;20244;-88
2023/09/23 02:38:43;;;;;;;1.10;1.10;;;;;;;;;;5081044;28;20197;-89
2023/09/23 02:41:10;;;;;;;1.07;1.07;;;;;;;;;;5081478;28;20224;-88
2023/09/23 02:43:38;;;;;;;1.30;1.20;;;;;;;;;;5082316;28;20205;-89
2023/09/23 02:46:06;;;;;;;1.00;1.00;;;;;;;;;;5081447;28;20229;-89
2023/09/23 02:48:34;;;;;;;1.10;1.10;;;;;;;;;;5085454;28;20641;-89
2023/09/23 02:51:03;;;;;;;1.17;1.10;;;;;;;;;;5086478;28;20225;-89
2023/09/23 02:53:32;;;;;;;1.00;1.00;;;;;;;;;;5082724;28;20679;-89
2023/09/23 02:56:05;;;;;;;1.07;1.07;;;;;;;;;;5081526;28;20231;-90
2023/09/23 02:58:32;;;;;;;1.23;1.20;;;;;;;;;;5084872;28;20213;-89
2023/09/23 03:01:01;;;;;;;1.30;1.30;;;;;;;;;;5087899;28;20232;-89
2023/09/23 03:03:30;;;;;;;1.27;1.20;;;;;;;;;;5093042;28;20209;-90
2023/09/23 03:05:57;;;;;;;2.87;1.30;;;;;;;;;;5084588;28;20239;-90
2023/09/23 03:08:26;;;;;;;1.30;1.20;;;;;;;;;;5076865;28;20209;-90
2023/09/23 03:10:53;;;;;;;1.27;1.27;;;;;;;;;;5084541;28;20225;-90
2023/09/23 03:13:21;;;;;;;1.23;1.23;;;;;;;;;;5076873;28;20216;-90
2023/09/23 03:15:51;;;;;;;1.23;1.23;;;;;;;;;;5084329;28;20610;-90
2023/09/23 03:18:27;;;;;;;1.10;1.10;;;;;;;;;;5084867;28;20213;-90
2023/09/23 03:20:54;;;;;;;2.30;1.43;;;;;;;;;;5084535;28;20228;-90
2023/09/23 03:23:23;;;;;;;1.63;1.53;;;;;;;;;;5083853;28;20212;-90
2023/09/23 03:25:52;;;;;;;1.93;1.43;;;;;;;;;;5077822;28;20233;-90
2023/09/23 03:28:19;;;;;;;1.70;1.60;;;;;;;;;;5083827;28;20236;-90
2023/09/23 03:30:47;;;;;;;1.50;1.50;;;;;;;;;;5081175;28;20721;-90
2023/09/23 03:33:15;;;;;;;1.50;1.40;;;;;;;;;;5081704;28;20258;-89
2023/09/23 03:35:44;;;;;;;1.33;1.33;;;;;;;;;;5080922;28;20229;-90
2023/09/23 03:38:12;;;;;;;2.00;1.80;;;;;;;;;;5081280;28;20507;-90
2023/09/23 03:40:39;;;;;;;3.30;1.60;;;;;;;;;;5052892;28;20269;-90
2023/09/23 03:43:07;;;;;;;1.60;1.50;;;;;;;;;;5076733;28;20243;-90
2023/09/23 03:45:35;;;;;;;1.40;1.30;;;;;;;;;;5094824;28;20248;-90
2023/09/23 03:48:02;;;;;;;1.60;1.50;;;;;;;;;;5088716;28;20192;-90
2023/09/23 03:50:30;;;;;;;1.60;1.50;;;;;;;;;;5092473;28;20248;-90
2023/09/23 03:52:58;;;;;;;2.67;1.60;;;;;;;;;;5098887;28;20270;-90
2023/09/23 03:55:25;;;;;;;1.67;1.57;;;;;;;;;;5088733;28;20241;-90
2023/09/23 03:57:53;;;;;;;2.00;1.57;;;;;;;;;;5090741;28;20607;-90
2023/09/23 04:00:26;;;;;;;1.63;1.53;;;;;;;;;;5096201;28;20236;-90
2023/09/23 04:02:54;;;;;;;1.70;1.60;;;;;;;;;;5084997;28;20206;-91
2023/09/23 04:05:23;;;;;;;3.83;1.77;;;;;;;;;;5085239;28;20347;-90
2023/09/23 04:07:51;;;;;;;2.03;1.83;;;;;;;;;;5088472;28;20197;-90
2023/09/23 04:10:19;;;;;;;1.80;1.70;;;;;;;;;;5087426;28;20408;-89
2023/09/23 04:12:46;;;;;;;1.90;1.80;;;;;;;;;;5085023;28;20235;-90
2023/09/23 04:15:14;;;;;;;4.80;1.87;;;;;;;;;;5084421;28;20237;-90
2023/09/23 04:17:42;;;;;;;1.47;1.37;;;;;;;;;;5076706;28;20250;-90
2023/09/23 04:20:10;;;;;;;2.97;1.97;;;;;;;;;;5084005;28;20225;-89
2023/09/23 04:22:38;;;;;;;3.70;1.90;;;;;;;;;;5095886;28;20242;-90
2023/09/23 04:25:06;;;;;;;1.90;1.80;;;;;;;;;;5087095;28;20240;-91
2023/09/23 04:27:33;;;;;;;1.77;1.67;;;;;;;;;;5079277;28;20209;-90
2023/09/23 04:30:01;;;;;;;3.73;1.73;;;;;;;;;;5089232;28;20244;-90
2023/09/23 04:32:28;;;;;;;2.33;1.70;;;;;;;;;;5092804;28;20209;-90
2023/09/23 04:34:57;;;;;;;2.07;1.93;;;;;;;;;;5084240;28;20612;-90
2023/09/23 04:37:27;;;;;;;1.77;1.67;;;;;;;;;;5093027;28;20208;-90
2023/09/23 04:39:54;;;;;;;1.83;1.73;;;;;;;;;;5083641;28;20225;-90
2023/09/23 04:42:22;;;;;;;3.33;1.43;;;;;;;;;;5084751;28;20208;-89
2023/09/23 04:44:49;;;;;;;1.77;1.67;;;;;;;;;;5084284;28;20235;-89
2023/09/23 04:47:18;;;;;;;1.80;1.70;;;;;;;;;;5075625;28;20604;-90
2023/09/23 04:49:45;;;;;;;3.50;1.60;;;;;;;;;;5075334;28;20282;-90
2023/09/23 04:52:15;;;;;;;1.90;1.80;;;;;;;;;;5076347;28;20690;-90
2023/09/23 04:54:42;;;;;;;3.33;1.60;;;;;;;;;;5075795;28;20636;-90
2023/09/23 04:57:09;;;;;;;1.80;1.70;;;;;;;;;;5074605;28;20620;-90
2023/09/23 04:59:36;;;;;;;3.97;1.90;;;;;;;;;;5075173;28;20233;-90
2023/09/23 05:02:04;;;;;;;5.57;1.60;;;;;;;;;;5075908;28;20258;-89
2023/09/23 05:04:31;;;;;;;2.37;1.50;;;;;;;;;;5075228;28;20591;-89
2023/09/23 05:07:00;;;;;;;1.30;1.30;;;;;;;;;;5075303;28;20222;-89
2023/09/23 05:09:29;;;;;;;1.23;1.23;;;;;;;;;;5075438;28;20244;-90
2023/09/23 05:11:56;;;;;;;1.47;1.20;;;;;;;;;;5076281;28;20206;-92
2023/09/23 05:14:25;;;;;;;1.43;1.27;;;;;;;;;;5083815;28;20257;-93
2023/09/23 05:16:52;;;;;;;1.20;1.20;;;;;;;;;;5078395;28;20293;-92
2023/09/23 05:19:20;;;;;;;1.23;1.23;;;;;;;;;;5077105;28;20699;-92
2023/09/23 05:21:47;;;;;;;1.20;1.20;;;;;;;;;;5076562;28;20237;-92
2023/09/23 05:24:14;;;;;;;1.30;1.27;;;;;;;;;;5076532;28;20243;-92
2023/09/23 05:26:43;;;;;;;1.57;1.47;;;;;;;;;;5076613;28;20236;-92
2023/09/23 05:29:10;;;;;;;1.40;1.40;;;;;;;;;;5075261;28;20241;-92
2023/09/23 05:31:37;;;;;;;1.33;1.27;;;;;;;;;;5075708;28;20694;-92
2023/09/23 05:34:04;;;;;;;1.40;1.40;;;;;;;;;;5074916;28;20714;-92
2023/09/23 05:36:31;;;;;;;1.07;1.07;;;;;;;;;;5075393;28;20228;-92
2023/09/23 05:38:58;;;;;;;1.60;1.60;;;;;;;;;;5075270;28;20259;-92
2023/09/23 05:41:26;;;;;;;1.27;1.27;;;;;;;;;;5075584;28;20205;-92
2023/09/23 05:43:54;;;;;;;1.57;1.47;;;;;;;;;;5074830;28;20209;-92
2023/09/23 05:46:21;;;;;;;1.60;1.50;;;;;;;;;;5075718;28;20738;-92
2023/09/23 05:48:49;;;;;;;1.30;1.30;;;;;;;;;;5075693;28;20205;-91
2023/09/23 05:51:16;;;;;;;1.30;1.30;;;;;;;;;;5075257;28;20228;-92
2023/09/23 05:53:43;;;;;;;1.63;1.53;;;;;;;;;;5075824;28;20205;-92
2023/09/23 05:56:10;;;;;;;1.30;1.30;;;;;;;;;;5074642;28;20248;-92
2023/09/23 05:58:37;;;;;;;1.03;1.03;;;;;;;;;;5075004;28;20686;-92
2023/09/23 06:01:06;;;;;;;1.60;1.50;;;;;;;;;;5068119;28;20229;-89
2023/09/23 06:03:33;;;;;;;1.50;1.40;;;;;;;;;;5054736;28;20202;-89
2023/09/23 06:06:00;;;;;;;1.53;1.47;;;;;;;;;;5054142;28;20242;-93
2023/09/23 06:08:27;;;;;;;1.20;1.20;;;;;;;;;;5054355;28;20206;-93
2023/09/23 06:11:04;;;;;;;1.90;1.40;;;;;;;;;;5067937;28;20244;-92
2023/09/23 06:13:31;;;;;;;1.70;1.60;;;;;;;;;;5065007;28;20218;-92
2023/09/23 06:16:01;;;;;;;1.63;1.53;;;;;;;;;;5053920;28;20244;-93
2023/09/23 06:18:30;;;;;;;1.60;1.50;;;;;;;;;;5054380;28;20209;-93
2023/09/23 06:20:59;;;;;;;1.40;1.40;;;;;;;;;;5054072;28;20236;-92
2023/09/23 06:23:26;;;;;;;1.90;1.80;;;;;;;;;;5053996;28;20663;-93
2023/09/23 06:25:54;;;;;;;2.00;1.90;;;;;;;;;;5053197;28;20260;-93
2023/09/23 06:28:21;;;;;;;1.37;1.17;;;;;;;;;;5053686;28;20707;-92
2023/09/23 06:30:48;;;;;;;1.60;1.50;;;;;;;;;;5053481;28;20242;-93
2023/09/23 06:33:15;;;;;;;1.53;1.43;;;;;;;;;;5054400;28;20217;-93
2023/09/23 06:35:43;;;;;;;1.40;1.40;;;;;;;;;;5053535;28;20245;-93
2023/09/23 06:38:10;;;;;;;1.63;1.53;;;;;;;;;;5054136;28;20221;-93
2023/09/23 06:40:37;;;;;;;1.10;1.10;;;;;;;;;;5053624;28;20237;-92
2023/09/23 06:43:04;;;;;;;1.20;1.17;;;;;;;;;;5054358;28;20194;-92
2023/09/23 06:45:31;;;;;;;1.20;1.20;;;;;;;;;;5059760;28;20233;-91
2023/09/23 06:47:59;;;;;;;1.33;1.30;;;;;;;;;;5073849;28;20212;-90
2023/09/23 06:50:26;;;;;;;2.20;2.00;;;;;;;;;;5073738;28;20229;-92
2023/09/23 06:52:54;;;;;;;1.63;1.60;;;;;;;;;;5074568;28;20666;-91
2023/09/23 06:55:21;;;;;;;1.57;1.50;;;;;;;;;;5073183;28;20245;-92
2023/09/23 06:57:48;;;;;;;1.30;1.20;;;;;;;;;;5075174;28;20197;-93
2023/09/23 07:00:16;;;;;;;1.47;1.43;;;;;;;;;;5074924;28;20249;-91
2023/09/23 07:02:43;;;;;;;1.70;1.60;;;;;;;;;;5074955;28;20340;-92
2023/09/23 07:05:10;;;;;;;1.70;1.70;;;;;;;;;;5073477;28;20237;-93
2023/09/23 07:07:37;;;;;;;1.43;1.33;;;;;;;;;;5074432;28;20554;-93
2023/09/23 07:10:06;;;;;;;1.93;1.83;;;;;;;;;;5073657;28;20745;-91
2023/09/23 07:12:33;;;;;;;3.87;2.10;;;;;;;;;;5073671;28;20201;-90
2023/09/23 07:15:00;;;;;;;1.43;1.40;;;;;;;;;;5072970;28;20706;-91
2023/09/23 07:17:28;;;;;;;1.33;1.33;;;;;;;;;;5073591;28;20205;-91
2023/09/23 07:19:55;;;;;;;1.67;1.57;;;;;;;;;;5074883;28;20256;-91
2023/09/23 07:22:22;;;;;;;1.37;1.37;;;;;;;;;;5078201;28;20205;-91
2023/09/23 07:24:49;;;;;;;1.50;1.40;;;;;;;;;;5077406;28;20236;-91
2023/09/23 07:27:17;;;;;;;1.80;1.70;;;;;;;;;;5077459;28;20198;-90
2023/09/23 07:29:44;;;;;;;2.03;1.70;;;;;;;;;;5077096;28;20237;-91
2023/09/23 07:32:11;;;;;;;2.97;2.00;;;;;;;;;;5077828;28;20240;-91
2023/09/23 07:34:38;;;;;;;1.80;1.70;;;;;;;;;;5077224;28;20233;-91
2023/09/23 07:37:06;;;;;;;2.13;1.93;;;;;;;;;;5080830;28;20205;-90
2023/09/23 07:39:33;;;;;;;1.70;1.60;;;;;;;;;;5084177;28;20228;-91
2023/09/23 07:42:00;;;;;;;1.37;1.37;;;;;;;;;;5082584;28;20198;-92
2023/09/23 07:44:29;;;;;;;1.60;1.50;;;;;;;;;;5077643;28;20267;-92
2023/09/23 07:46:56;;;;;;;1.90;1.80;;;;;;;;;;5115032;22;20281;-84
2023/09/23 07:49:23;;;;;;;1.20;1.20;;;;;;;;;;5093275;28;20228;-85
2023/09/23 07:51:50;;;;;;;1.53;1.43;;;;;;;;;;5093853;28;20221;-84
2023/09/23 07:54:17;;;;;;;1.50;1.50;;;;;;;;;;5093226;28;20247;-84
2023/09/23 07:56:44;;;;;;;1.50;1.40;;;;;;;;;;5093581;28;20231;-84
2023/09/23 07:59:11;;;;;;;1.13;1.13;;;;;;;;;;5093166;28;20228;-85
2023/09/23 08:01:40;;;;;;;1.60;1.50;;;;;;;;;;5093707;28;20209;-84
2023/09/23 08:04:07;;;;;;;1.37;1.30;;;;;;;;;;5092934;28;20216;-83
2023/09/23 08:06:34;;;;;;;1.20;1.20;;;;;;;;;;5093512;28;20231;-84
2023/09/23 08:09:01;;;;;;;1.20;1.20;;;;;;;;;;5092760;28;20674;-84
2023/09/23 08:11:28;;;;;;;1.20;1.20;;;;;;;;;;5093623;28;20229;-85
2023/09/23 08:13:55;;;;;;;1.10;1.10;;;;;;;;;;5092770;28;20204;-83
2023/09/23 08:16:22;;;;;;;1.07;1.07;;;;;;;;;;5093382;28;20225;-85
2023/09/23 08:18:51;;;;;;;2.03;1.40;;;;;;;;;;5092643;28;20231;-86
2023/09/23 08:21:18;;;;;;;1.10;1.10;;;;;;;;;;5093512;28;20212;-85
2023/09/23 08:23:45;;;;;;;1.10;1.10;;;;;;;;;;5093458;28;20208;-85
2023/09/23 08:26:12;;;;;;;1.10;1.10;;;;;;;;;;5092719;28;20236;-85
2023/09/23 08:28:40;;;;;;;1.07;1.03;;;;;;;;;;5093082;28;20212;-85
2023/09/23 08:31:07;;;;;;;1.20;1.10;;;;;;;;;;5092402;28;20229;-84
2023/09/23 08:33:35;;;;;;;1.00;1.00;;;;;;;;;;5093321;28;20209;-85
2023/09/23 08:36:04;;;;;;;0.90;0.90;;;;;;;;;;5092523;28;20232;-85
2023/09/23 08:38:31;;;;;;;1.00;1.00;;;;;;;;;;5093138;28;20212;-85
2023/09/23 08:40:59;;;;;;;0.90;0.90;;;;;;;;;;5092665;28;20223;-85
2023/09/23 08:43:36;;;;;;;2.13;1.53;;;;;;;;;;5093307;28;20681;-85
2023/09/23 08:46:03;;;;;;;1.10;1.03;;;;;;;;;;5048688;28;1047512;-85
2023/09/23 08:48:32;;;;;;;1.93;1.10;;;;;;;;;;5094018;28;20205;-84
2023/09/23 08:51:00;;;;;;;1.00;1.00;;;;;;;;;;5093525;28;20228;-85
2023/09/23 08:53:31;;;;;;;1.10;1.10;;;;;;;;;;5094255;28;20221;-86
2023/09/23 08:55:58;;;;;;;1.50;0.90;;;;;;;;;;5085686;28;20271;-85
2023/09/23 08:58:25;;;;;;;0.80;0.80;;;;;;;;;;5094013;28;20204;-84
2023/09/23 09:00:54;;;;;;;0.87;0.87;;;;;;;;;;5093388;28;20275;-85
2023/09/23 09:03:21;;;;;;;1.13;0.70;;;;;;;;;;5094170;28;20211;-85
2023/09/23 09:05:48;;;;;;;0.70;0.70;;;;;;;;;;5093107;28;20228;-86
2023/09/23 09:08:18;;;;;;;0.70;0.70;;;;;;;;;;5093299;28;20216;-85
2023/09/23 09:10:47;;;;;;;0.80;0.80;;;;;;;;;;5093028;28;20260;-84
2023/09/23 09:13:17;;;;;;;0.87;0.80;;;;;;;;;;5093567;28;20212;-85
2023/09/23 09:15:44;;;;;;;0.93;0.93;;;;;;;;;;5092725;28;20274;-85
2023/09/23 09:18:11;;;;;;;0.90;0.80;;;;;;;;;;5093264;28;20673;-85
2023/09/23 09:20:39;;;;;;;3.00;1.40;;;;;;;;;;5093500;28;20232;-85
2023/09/23 09:23:07;;;;;;;0.90;0.90;;;;;;;;;;5093407;28;20208;-86
2023/09/23 09:25:34;;;;;;;0.70;0.70;;;;;;;;;;5092577;28;20240;-85
2023/09/23 09:28:03;;;;;;;0.75;0.75;;;;;;;;;;5093083;28;20200;-85
2023/09/23 09:30:31;;;;;;;0.88;0.80;;;;;;;;;;5092806;28;20244;-86
2023/09/23 09:33:02;;;;;;;3.50;0.93;;;;;;;;;;5085077;28;20219;-85
2023/09/23 09:35:29;;;;;;;0.70;0.70;;;;;;;;;;5096714;28;20239;-85
2023/09/23 09:37:58;;;;;;;1.00;0.88;;;;;;;;;;5092891;28;20200;-85
2023/09/23 09:40:26;;;;;;;0.85;0.85;;;;;;;;;;5092811;28;20225;-86
2023/09/23 09:42:54;;;;;;;1.10;0.90;;;;;;;;;;5092188;28;20230;-85
2023/09/23 09:45:23;;;;;;;0.77;0.77;;;;;;;;;;5092378;28;20275;-86
2023/09/23 09:47:51;;;;;;;0.70;0.70;;;;;;;;;;5092897;28;20215;-85
2023/09/23 09:50:19;;;;;;;1.35;0.82;;;;;;;;;;5092433;28;20278;-84
2023/09/23 09:52:46;;;;;;;0.90;0.90;;;;;;;;;;5092584;28;20700;-85
2023/09/23 09:55:18;;;;;;;0.80;0.80;;;;;;;;;;5094267;28;20228;-86
2023/09/23 09:57:47;;;;;;;1.60;1.10;;;;;;;;;;5092899;28;20205;-86
2023/09/23 10:00:24;;;;;;;1.00;0.82;;;;;;;;;;5099006;28;20229;-85
2023/09/23 10:02:57;;;;;;;0.68;0.68;;;;;;;;;;5092900;28;20287;-86
2023/09/23 10:05:25;;;;;;;1.00;0.65;;;;;;;;;;5092205;28;20228;-85
2023/09/23 10:07:56;;;;;;;0.60;0.60;;;;;;;;;;5092349;28;20578;-86
2023/09/23 10:10:31;;;;;;;0.82;0.50;;;;;;;;;;5092125;28;20224;-85
2023/09/23 10:12:59;;;;;;;1.23;0.60;;;;;;;;;;5092653;28;20212;-90
2023/09/23 10:15:28;;;;;;;0.90;0.82;;;;;;;;;;5094073;28;20260;-89
2023/09/23 10:17:57;;;;;;;0.65;0.65;;;;;;;;;;5094524;28;20796;-89
2023/09/23 10:20:33;;;;;;;0.50;0.50;;;;;;;;;;5094208;28;20233;-88
2023/09/23 10:23:00;;;;;;;0.98;0.70;;;;;;;;;;5085543;28;20197;-89
2023/09/23 10:25:37;;;;;;;0.50;0.50;;;;;;;;;;5093954;28;20285;-88
2023/09/23 10:28:06;;;;;;;1.75;1.00;;;;;;;;;;5086056;28;20567;-88
2023/09/23 10:30:35;;;;;;;0.43;0.43;;;;;;;;;;5109698;28;20306;-88
2023/09/23 10:33:04;;;;;;;0.70;0.70;;;;;;;;;;5116315;27;20216;-89
2023/09/23 10:35:33;;;;;;;0.50;0.50;;;;;;;;;;5110554;28;20236;-88
2023/09/23 10:38:06;;;;;;;0.30;0.30;;;;;;;;;;5101352;28;20576;-89
2023/09/23 10:40:33;;;;;;;0.40;0.40;;;;;;;;;;5093738;28;20240;-89
2023/09/23 10:43:08;;;;;;;0.50;0.50;;;;;;;;;;5094158;28;20205;-89
2023/09/23 10:45:35;;;;;;;0.50;0.50;;;;;;;;;;5093366;28;20270;-88
2023/09/23 10:48:05;;;;;;;0.30;0.30;;;;;;;;;;5093109;28;20215;-89
2023/09/23 10:50:32;;;;;;;0.63;0.55;;;;;;;;;;5092861;28;20236;-89
2023/09/23 10:52:59;;;;;;;0.50;0.50;;;;;;;;;;5092416;28;20716;-88
2023/09/23 10:55:26;;;;;;;0.73;0.73;;;;;;;;;;5093186;28;20236;-89
2023/09/23 10:57:54;;;;;;;0.40;0.40;;;;;;;;;;5093758;28;20212;-89
2023/09/23 11:00:24;;;;;;;0.38;0.38;;;;;;;;;;5093094;28;20256;-89
2023/09/23 11:02:54;;;;;;;0.32;0.32;;;;;;;;;;5095068;28;20662;-89
2023/09/23 11:05:23;;;;;;;1.65;0.50;;;;;;;;;;5092534;28;20734;-89
2023/09/23 11:07:54;;;;;;;2.75;0.57;;;;;;;;;;5094210;28;20196;-88
2023/09/23 11:10:23;;;;;;;0.82;0.40;;;;;;;;;;5093253;28;20227;-87
2023/09/23 11:12:50;;;;;;;0.50;0.40;;;;;;;;;;5093049;28;20694;-89
2023/09/23 11:15:17;;;;;;;0.77;0.57;;;;;;;;;;5092734;28;20240;-88
2023/09/23 11:17:44;;;;;;;1.88;0.75;;;;;;;;;;5093667;28;20204;-88
2023/09/23 11:20:11;;;;;;;0.40;0.40;;;;;;;;;;5092151;28;20240;-88
2023/09/23 11:22:43;;;;;;;0.80;0.60;;;;;;;;;;5092727;28;20208;-88
2023/09/23 11:25:11;;;;;;;0.40;0.40;;;;;;;;;;5092333;28;20324;-88
2023/09/23 11:27:39;;;;;;;0.70;0.68;;;;;;;;;;5092712;28;20205;-89
2023/09/23 11:30:06;;;;;;;0.50;0.50;;;;;;;;;;5091921;28;20236;-89
2023/09/23 11:32:33;;;;;;;0.95;0.70;;;;;;;;;;5093713;28;20220;-89
2023/09/23 11:35:02;;;;;;;1.00;0.60;;;;;;;;;;5092930;28;20626;-89
2023/09/23 11:37:29;;;;;;;0.45;0.45;;;;;;;;;;5093560;28;20255;-88
2023/09/23 11:39:58;;;;;;;0.77;0.45;;;;;;;;;;5092759;28;20239;-88
2023/09/23 11:42:25;;;;;;;2.35;0.40;;;;;;;;;;5097634;28;20205;-89
2023/09/23 11:44:52;;;;;;;0.45;0.45;;;;;;;;;;5095665;28;20232;-89
2023/09/23 11:47:21;;;;;;;0.40;0.40;;;;;;;;;;5096894;28;20207;-89
2023/09/23 11:49:48;;;;;;;1.00;0.43;;;;;;;;;;5097739;28;20315;-89
2023/09/23 11:52:15;;;;;;;1.35;0.73;;;;;;;;;;5094785;28;20232;-85
2023/09/23 11:54:43;;;;;;;0.57;0.57;;;;;;;;;;5095201;28;20233;-86
2023/09/23 11:57:12;;;;;;;0.60;0.60;;;;;;;;;;5091790;28;20225;-86
2023/09/23 11:59:39;;;;;;;0.50;0.50;;;;;;;;;;5091132;28;20323;-85
2023/09/23 12:02:08;;;;;;;0.43;0.43;;;;;;;;;;5076749;28;20251;-86
2023/09/23 12:04:35;;;;;;;0.57;0.57;;;;;;;;;;5071408;28;20240;-86
2023/09/23 12:07:02;;;;;;;0.50;0.50;;;;;;;;;;5074716;28;20225;-85
2023/09/23 12:09:33;;;;;;;0.80;0.80;;;;;;;;;;5074200;28;20702;-85
2023/09/23 12:12:01;;;;;;;0.57;0.52;;;;;;;;;;5075028;28;20220;-85
2023/09/23 12:14:29;;;;;;;0.45;0.45;;;;;;;;;;5074593;28;20233;-86
2023/09/23 12:16:56;;;;;;;0.70;0.70;;;;;;;;;;5074540;28;20221;-85
2023/09/23 12:19:23;;;;;;;0.68;0.68;;;;;;;;;;5074109;28;20233;-86
2023/09/23 12:21:50;;;;;;;0.73;0.70;;;;;;;;;;5074887;28;20205;-85
2023/09/23 12:24:17;;;;;;;1.48;0.57;;;;;;;;;;5074282;28;20244;-86
2023/09/23 12:26:44;;;;;;;3.15;0.52;;;;;;;;;;5075120;28;20229;-86
2023/09/23 12:29:11;;;;;;;0.70;0.70;;;;;;;;;;5074063;28;20702;-85
2023/09/23 12:31:40;;;;;;;0.75;0.70;;;;;;;;;;5074516;28;20202;-85
2023/09/23 12:34:07;;;;;;;0.43;0.43;;;;;;;;;;5074031;28;20685;-85
2023/09/23 12:36:34;;;;;;;2.13;0.80;;;;;;;;;;5074728;28;20229;-86
2023/09/23 12:39:01;;;;;;;0.85;0.70;;;;;;;;;;5074233;28;20205;-85
2023/09/23 12:41:28;;;;;;;0.45;0.45;;;;;;;;;;5074542;28;20202;-86
2023/09/23 12:43:57;;;;;;;0.60;0.60;;;;;;;;;;5074020;28;20262;-86
2023/09/23 12:46:24;;;;;;;0.63;0.40;;;;;;;;;;5086870;28;20232;-85
2023/09/23 12:48:52;;;;;;;0.82;0.45;;;;;;;;;;5093883;28;20209;-85
2023/09/23 12:51:19;;;;;;;0.60;0.60;;;;;;;;;;5094730;28;20201;-85
2023/09/23 12:53:47;;;;;;;1.40;0.82;;;;;;;;;;5094570;28;20229;-85
2023/09/23 12:56:17;;;;;;;0.75;0.75;;;;;;;;;;5093951;28;20236;-86
2023/09/23 12:58:44;;;;;;;0.52;0.52;;;;;;;;;;5096330;28;20282;-85
2023/09/23 13:01:12;;;;;;;0.75;0.65;;;;;;;;;;5094316;28;20236;-85
2023/09/23 13:03:39;;;;;;;0.90;0.82;;;;;;;;;;5094619;28;20674;-86
2023/09/23 13:06:07;;;;;;;0.57;0.57;;;;;;;;;;5093463;28;20233;-85
2023/09/23 13:08:35;;;;;;;0.45;0.45;;;;;;;;;;5094894;28;20682;-86
2023/09/23 13:11:02;;;;;;;0.60;0.50;;;;;;;;;;5093769;28;20232;-86
2023/09/23 13:13:29;;;;;;;0.65;0.65;;;;;;;;;;5095799;28;20229;-85
2023/09/23 13:15:56;;;;;;;0.43;0.43;;;;;;;;;;5097587;28;20244;-85
2023/09/23 13:18:23;;;;;;;0.73;0.65;;;;;;;;;;5096703;28;20205;-86
2023/09/23 13:20:50;;;;;;;0.95;0.68;;;;;;;;;;5094000;28;20242;-86
2023/09/23 13:23:19;;;;;;;0.90;0.77;;;;;;;;;;5093868;28;20212;-86
2023/09/23 13:25:46;;;;;;;1.55;0.98;;;;;;;;;;5093590;28;20294;-86
2023/09/23 13:28:13;;;;;;;0.57;0.57;;;;;;;;;;5093953;28;20242;-85
2023/09/23 13:30:40;;;;;;;1.13;1.05;;;;;;;;;;5093595;28;20263;-86
2023/09/23 13:33:08;;;;;;;1.27;1.17;;;;;;;;;;5093882;28;20231;-85
2023/09/23 13:35:36;;;;;;;0.75;0.75;;;;;;;;;;5093124;28;20698;-86
2023/09/23 13:38:03;;;;;;;0.88;0.88;;;;;;;;;;5093871;28;20257;-85
2023/09/23 13:40:33;;;;;;;1.35;0.95;;;;;;;;;;5093179;28;20243;-86
2023/09/23 13:43:00;;;;;;;0.55;0.55;;;;;;;;;;5094057;28;20201;-86
2023/09/23 13:45:29;;;;;;;0.70;0.70;;;;;;;;;;5093415;28;20232;-90
2023/09/23 13:47:56;;;;;;;1.30;0.60;;;;;;;;;;5097297;28;20208;-90
2023/09/23 13:50:23;;;;;;;0.63;0.50;;;;;;;;;;5095126;28;20705;-89
2023/09/23 13:52:50;;;;;;;0.57;0.50;;;;;;;;;;5095730;28;20237;-89
2023/09/23 13:55:17;;;;;;;0.50;0.50;;;;;;;;;;5094326;28;20256;-89
2023/09/23 13:57:46;;;;;;;0.60;0.60;;;;;;;;;;5095270;28;20219;-89
2023/09/23 14:00:13;;;;;;;0.70;0.70;;;;;;;;;;5095975;28;20252;-89
2023/09/23 14:02:40;;;;;;;0.65;0.65;;;;;;;;;;5095926;28;20693;-90
2023/09/23 14:05:09;;;;;;;0.47;0.47;;;;;;;;;;5095360;28;20710;-90
2023/09/23 14:07:36;;;;;;;0.50;0.50;;;;;;;;;;5095877;28;20212;-91
2023/09/23 14:10:04;;;;;;;1.95;0.80;;;;;;;;;;5094712;28;20228;-90
2023/09/23 14:12:31;;;;;;;1.15;0.90;;;;;;;;;;5095138;28;20224;-89
2023/09/23 14:14:59;;;;;;;0.40;0.40;;;;;;;;;;5095372;28;20239;-89
2023/09/23 14:17:27;;;;;;;0.75;0.57;;;;;;;;;;5100140;28;20212;-89
2023/09/23 14:19:54;;;;;;;0.82;0.70;;;;;;;;;;5097859;28;20694;-89
2023/09/23 14:22:22;;;;;;;0.45;0.45;;;;;;;;;;5095013;28;20567;-89
2023/09/23 14:24:49;;;;;;;0.88;0.80;;;;;;;;;;5093809;28;20323;-90
2023/09/23 14:27:17;;;;;;;1.08;0.98;;;;;;;;;;5095827;28;20217;-88
2023/09/23 14:29:44;;;;;;;0.70;0.70;;;;;;;;;;5095844;28;20286;-88
2023/09/23 14:32:12;;;;;;;0.82;0.80;;;;;;;;;;5093715;28;20713;-89
2023/09/23 14:34:39;;;;;;;0.50;0.50;;;;;;;;;;5093917;28;20228;-89
2023/09/23 14:37:06;;;;;;;0.63;0.63;;;;;;;;;;5093711;28;20227;-88
2023/09/23 14:39:34;;;;;;;0.65;0.50;;;;;;;;;;5093563;28;20232;-90
2023/09/23 14:42:01;;;;;;;0.70;0.68;;;;;;;;;;5094137;28;20254;-89
2023/09/23 14:44:28;;;;;;;0.50;0.47;;;;;;;;;;5094101;28;20232;-87
2023/09/23 14:46:55;;;;;;;0.47;0.47;;;;;;;;;;5093853;28;20232;-89